sensor_id;sensor_type;location;lat;lon;timestamp;temperature;humidity
47520;DHT22;33252;48.122;11.538;2022-08-01T00:00:11;22.30;91.40
47520;DHT22;33252;48.122;11.538;2022-08-01T00:02:37;22.20;91.30
47520;DHT22;33252;48.122;11.538;2022-08-01T00:05:03;22.20;91.20
47520;DHT22;33252;48.122;11.538;2022-08-01T00:07:31;22.20;91.30
47520;DHT22;33252;48.122;11.538;2022-08-01T00:09:57;22.10;91.00
47520;DHT22;33252;48.122;11.538;2022-08-01T00:12:22;22.10;91.00
47520;DHT22;33252;48.122;11.538;2022-08-01T00:14:48;22.10;91.10
47520;DHT22;33252;48.122;11.538;2022-08-01T00:17:13;22.10;91.10
47520;DHT22;33252;48.122;11.538;2022-08-01T00:19:39;22.00;91.00
47520;DHT22;33252;48.122;11.538;2022-08-01T00:22:05;22.00;91.00
47520;DHT22;33252;48.122;11.538;2022-08-01T00:24:30;21.90;91.20
47520;DHT22;33252;48.122;11.538;2022-08-01T00:26:56;21.80;91.40
47520;DHT22;33252;48.122;11.538;2022-08-01T00:29:21;21.80;91.30
47520;DHT22;33252;48.122;11.538;2022-08-01T00:31:47;21.70;91.30
47520;DHT22;33252;48.122;11.538;2022-08-01T00:34:13;21.70;91.20
47520;DHT22;33252;48.122;11.538;2022-08-01T00:36:38;21.70;91.20
47520;DHT22;33252;48.122;11.538;2022-08-01T00:39:04;21.60;91.50
47520;DHT22;33252;48.122;11.538;2022-08-01T00:41:29;21.60;91.40
47520;DHT22;33252;48.122;11.538;2022-08-01T00:43:55;21.60;91.30
47520;DHT22;33252;48.122;11.538;2022-08-01T00:46:20;21.60;91.50
47520;DHT22;33252;48.122;11.538;2022-08-01T00:48:46;21.40;91.60
47520;DHT22;33252;48.122;11.538;2022-08-01T00:51:11;21.40;91.70
47520;DHT22;33252;48.122;11.538;2022-08-01T00:53:38;21.40;91.70
47520;DHT22;33252;48.122;11.538;2022-08-01T00:56:04;21.40;91.60
47520;DHT22;33252;48.122;11.538;2022-08-01T00:58:29;21.40;91.70
47520;DHT22;33252;48.122;11.538;2022-08-01T01:00:57;21.30;91.80
47520;DHT22;33252;48.122;11.538;2022-08-01T01:03:23;21.30;91.70
47520;DHT22;33252;48.122;11.538;2022-08-01T01:05:55;21.20;91.90
47520;DHT22;33252;48.122;11.538;2022-08-01T01:08:26;21.10;92.20
47520;DHT22;33252;48.122;11.538;2022-08-01T01:10:58;21.10;92.10
47520;DHT22;33252;48.122;11.538;2022-08-01T01:13:38;21.10;92.10
47520;DHT22;33252;48.122;11.538;2022-08-01T01:16:05;21.30;92.00
47520;DHT22;33252;48.122;11.538;2022-08-01T01:31:28;21.00;92.30
47520;DHT22;33252;48.122;11.538;2022-08-01T01:33:56;21.00;92.30
47520;DHT22;33252;48.122;11.538;2022-08-01T01:36:23;20.90;92.20
47520;DHT22;33252;48.122;11.538;2022-08-01T01:38:49;20.90;92.60
47520;DHT22;33252;48.122;11.538;2022-08-01T01:41:16;20.90;92.70
47520;DHT22;33252;48.122;11.538;2022-08-01T01:43:43;20.90;92.50
47520;DHT22;33252;48.122;11.538;2022-08-01T01:46:10;20.80;92.70
47520;DHT22;33252;48.122;11.538;2022-08-01T01:48:36;20.90;92.70
47520;DHT22;33252;48.122;11.538;2022-08-01T01:51:03;20.80;92.80
47520;DHT22;33252;48.122;11.538;2022-08-01T01:53:29;20.80;92.80
47520;DHT22;33252;48.122;11.538;2022-08-01T01:55:57;20.80;92.70
47520;DHT22;33252;48.122;11.538;2022-08-01T01:58:23;20.90;92.60
47520;DHT22;33252;48.122;11.538;2022-08-01T02:09:06;20.90;92.40
47520;DHT22;33252;48.122;11.538;2022-08-01T02:11:33;20.80;92.50
47520;DHT22;33252;48.122;11.538;2022-08-01T02:14:00;20.80;92.60
47520;DHT22;33252;48.122;11.538;2022-08-01T02:16:27;20.90;92.50
47520;DHT22;33252;48.122;11.538;2022-08-01T02:18:53;20.90;92.30
47520;DHT22;33252;48.122;11.538;2022-08-01T02:21:36;20.90;92.30
47520;DHT22;33252;48.122;11.538;2022-08-01T02:24:03;20.70;92.30
47520;DHT22;33252;48.122;11.538;2022-08-01T02:26:33;20.70;92.30
47520;DHT22;33252;48.122;11.538;2022-08-01T02:29:02;20.70;92.30
47520;DHT22;33252;48.122;11.538;2022-08-01T02:31:30;20.70;92.20
47520;DHT22;33252;48.122;11.538;2022-08-01T02:33:58;20.70;92.50
47520;DHT22;33252;48.122;11.538;2022-08-01T02:36:27;20.70;92.20
47520;DHT22;33252;48.122;11.538;2022-08-01T02:38:54;20.60;92.20
47520;DHT22;33252;48.122;11.538;2022-08-01T02:41:21;20.60;92.20
47520;DHT22;33252;48.122;11.538;2022-08-01T02:43:49;20.70;92.20
47520;DHT22;33252;48.122;11.538;2022-08-01T02:46:23;20.60;92.00
47520;DHT22;33252;48.122;11.538;2022-08-01T02:48:50;20.60;92.30
47520;DHT22;33252;48.122;11.538;2022-08-01T02:51:17;20.60;92.30
47520;DHT22;33252;48.122;11.538;2022-08-01T02:53:42;20.60;92.30
47520;DHT22;33252;48.122;11.538;2022-08-01T02:56:09;20.50;92.30
47520;DHT22;33252;48.122;11.538;2022-08-01T02:58:35;20.60;92.20
47520;DHT22;33252;48.122;11.538;2022-08-01T03:01:01;20.60;92.40
47520;DHT22;33252;48.122;11.538;2022-08-01T03:03:27;20.60;92.40
47520;DHT22;33252;48.122;11.538;2022-08-01T03:05:53;20.60;92.50
47520;DHT22;33252;48.122;11.538;2022-08-01T03:08:19;20.40;92.70
47520;DHT22;33252;48.122;11.538;2022-08-01T03:10:45;20.40;92.50
47520;DHT22;33252;48.122;11.538;2022-08-01T03:13:11;20.40;92.60
47520;DHT22;33252;48.122;11.538;2022-08-01T03:15:38;20.40;92.70
47520;DHT22;33252;48.122;11.538;2022-08-01T03:18:05;20.40;92.70
47520;DHT22;33252;48.122;11.538;2022-08-01T03:20:32;20.50;92.80
47520;DHT22;33252;48.122;11.538;2022-08-01T03:22:57;20.40;92.90
47520;DHT22;33252;48.122;11.538;2022-08-01T03:25:24;20.40;92.70
47520;DHT22;33252;48.122;11.538;2022-08-01T03:27:55;20.30;93.00
47520;DHT22;33252;48.122;11.538;2022-08-01T03:30:25;20.40;92.70
47520;DHT22;33252;48.122;11.538;2022-08-01T03:32:51;20.30;93.00
47520;DHT22;33252;48.122;11.538;2022-08-01T03:35:17;20.40;92.90
47520;DHT22;33252;48.122;11.538;2022-08-01T03:37:46;20.20;92.90
47520;DHT22;33252;48.122;11.538;2022-08-01T03:40:23;20.20;92.90
47520;DHT22;33252;48.122;11.538;2022-08-01T03:42:54;20.20;93.00
47520;DHT22;33252;48.122;11.538;2022-08-01T03:45:22;20.20;92.70
47520;DHT22;33252;48.122;11.538;2022-08-01T03:47:49;20.20;92.80
47520;DHT22;33252;48.122;11.538;2022-08-01T03:50:17;20.10;93.00
47520;DHT22;33252;48.122;11.538;2022-08-01T03:52:45;20.20;92.90
47520;DHT22;33252;48.122;11.538;2022-08-01T03:55:11;20.20;92.80
47520;DHT22;33252;48.122;11.538;2022-08-01T03:57:38;20.10;92.90
47520;DHT22;33252;48.122;11.538;2022-08-01T04:00:05;20.10;92.80
47520;DHT22;33252;48.122;11.538;2022-08-01T04:02:34;20.10;93.10
47520;DHT22;33252;48.122;11.538;2022-08-01T04:05:00;20.00;93.20
47520;DHT22;33252;48.122;11.538;2022-08-01T04:07:28;20.00;93.00
47520;DHT22;33252;48.122;11.538;2022-08-01T04:09:54;20.10;93.00
47520;DHT22;33252;48.122;11.538;2022-08-01T04:12:20;20.00;93.00
47520;DHT22;33252;48.122;11.538;2022-08-01T04:14:45;20.00;93.00
47520;DHT22;33252;48.122;11.538;2022-08-01T04:17:11;20.10;93.00
47520;DHT22;33252;48.122;11.538;2022-08-01T04:19:36;20.00;93.00
47520;DHT22;33252;48.122;11.538;2022-08-01T04:22:02;20.00;93.10
47520;DHT22;33252;48.122;11.538;2022-08-01T04:24:28;20.10;93.20
47520;DHT22;33252;48.122;11.538;2022-08-01T04:26:55;20.10;93.00
47520;DHT22;33252;48.122;11.538;2022-08-01T04:29:21;20.10;93.00
47520;DHT22;33252;48.122;11.538;2022-08-01T04:31:48;20.10;93.00
47520;DHT22;33252;48.122;11.538;2022-08-01T04:34:15;20.10;93.00
47520;DHT22;33252;48.122;11.538;2022-08-01T04:36:41;20.00;93.00
47520;DHT22;33252;48.122;11.538;2022-08-01T04:39:07;20.10;93.00
47520;DHT22;33252;48.122;11.538;2022-08-01T04:41:34;20.10;92.90
47520;DHT22;33252;48.122;11.538;2022-08-01T04:44:01;20.10;93.00
47520;DHT22;33252;48.122;11.538;2022-08-01T04:46:28;20.00;93.00
47520;DHT22;33252;48.122;11.538;2022-08-01T04:48:54;19.90;93.20
47520;DHT22;33252;48.122;11.538;2022-08-01T04:51:20;20.00;93.20
47520;DHT22;33252;48.122;11.538;2022-08-01T04:53:47;20.00;93.20
47520;DHT22;33252;48.122;11.538;2022-08-01T04:56:13;19.90;93.40
47520;DHT22;33252;48.122;11.538;2022-08-01T04:58:39;20.00;93.30
47520;DHT22;33252;48.122;11.538;2022-08-01T05:01:06;20.00;93.30
47520;DHT22;33252;48.122;11.538;2022-08-01T05:03:32;20.00;93.40
47520;DHT22;33252;48.122;11.538;2022-08-01T05:05:57;20.00;93.30
47520;DHT22;33252;48.122;11.538;2022-08-01T05:08:23;20.10;93.30
47520;DHT22;33252;48.122;11.538;2022-08-01T05:10:48;20.00;93.20
47520;DHT22;33252;48.122;11.538;2022-08-01T05:13:14;20.20;93.00
47520;DHT22;33252;48.122;11.538;2022-08-01T05:15:39;20.10;93.00
47520;DHT22;33252;48.122;11.538;2022-08-01T05:18:07;20.20;92.80
47520;DHT22;33252;48.122;11.538;2022-08-01T05:20:36;20.30;92.90
47520;DHT22;33252;48.122;11.538;2022-08-01T05:23:02;20.30;92.90
47520;DHT22;33252;48.122;11.538;2022-08-01T05:25:28;20.40;92.50
47520;DHT22;33252;48.122;11.538;2022-08-01T05:27:53;20.50;92.50
47520;DHT22;33252;48.122;11.538;2022-08-01T05:30:19;20.50;92.60
47520;DHT22;33252;48.122;11.538;2022-08-01T05:32:45;20.50;92.50
47520;DHT22;33252;48.122;11.538;2022-08-01T05:35:10;20.60;92.60
47520;DHT22;33252;48.122;11.538;2022-08-01T05:37:36;20.60;92.40
47520;DHT22;33252;48.122;11.538;2022-08-01T05:40:01;20.60;92.60
47520;DHT22;33252;48.122;11.538;2022-08-01T05:42:27;20.70;92.30
47520;DHT22;33252;48.122;11.538;2022-08-01T05:44:52;20.80;92.30
47520;DHT22;33252;48.122;11.538;2022-08-01T05:47:18;20.70;92.20
47520;DHT22;33252;48.122;11.538;2022-08-01T05:49:44;20.70;92.40
47520;DHT22;33252;48.122;11.538;2022-08-01T05:52:10;20.70;92.30
47520;DHT22;33252;48.122;11.538;2022-08-01T05:54:35;20.70;92.40
47520;DHT22;33252;48.122;11.538;2022-08-01T05:57:01;20.80;92.50
47520;DHT22;33252;48.122;11.538;2022-08-01T05:59:30;20.80;92.60
47520;DHT22;33252;48.122;11.538;2022-08-01T06:01:56;20.90;92.70
47520;DHT22;33252;48.122;11.538;2022-08-01T06:04:21;21.00;92.10
47520;DHT22;33252;48.122;11.538;2022-08-01T06:06:47;21.00;92.10
47520;DHT22;33252;48.122;11.538;2022-08-01T06:09:13;21.00;91.80
47520;DHT22;33252;48.122;11.538;2022-08-01T06:11:38;21.00;92.10
47520;DHT22;33252;48.122;11.538;2022-08-01T06:14:04;21.10;92.10
47520;DHT22;33252;48.122;11.538;2022-08-01T06:16:29;21.20;92.00
47520;DHT22;33252;48.122;11.538;2022-08-01T06:18:55;21.20;91.80
47520;DHT22;33252;48.122;11.538;2022-08-01T06:21:20;21.10;91.50
47520;DHT22;33252;48.122;11.538;2022-08-01T06:23:46;21.20;91.80
47520;DHT22;33252;48.122;11.538;2022-08-01T06:26:11;21.40;91.90
47520;DHT22;33252;48.122;11.538;2022-08-01T06:28:37;21.30;91.50
47520;DHT22;33252;48.122;11.538;2022-08-01T06:31:03;21.30;91.30
47520;DHT22;33252;48.122;11.538;2022-08-01T06:33:29;21.40;91.30
47520;DHT22;33252;48.122;11.538;2022-08-01T06:35:54;21.40;91.10
47520;DHT22;33252;48.122;11.538;2022-08-01T06:38:20;21.40;91.40
47520;DHT22;33252;48.122;11.538;2022-08-01T06:40:46;21.50;91.40
47520;DHT22;33252;48.122;11.538;2022-08-01T06:43:11;21.50;91.30
47520;DHT22;33252;48.122;11.538;2022-08-01T06:45:37;21.50;91.10
47520;DHT22;33252;48.122;11.538;2022-08-01T06:48:03;21.60;91.10
47520;DHT22;33252;48.122;11.538;2022-08-01T06:50:29;21.60;91.40
47520;DHT22;33252;48.122;11.538;2022-08-01T06:52:54;21.60;91.20
47520;DHT22;33252;48.122;11.538;2022-08-01T06:55:20;21.70;91.10
47520;DHT22;33252;48.122;11.538;2022-08-01T06:57:49;21.70;91.40
47520;DHT22;33252;48.122;11.538;2022-08-01T07:00:16;21.80;91.40
47520;DHT22;33252;48.122;11.538;2022-08-01T07:02:44;21.90;91.10
47520;DHT22;33252;48.122;11.538;2022-08-01T07:05:09;22.00;91.40
47520;DHT22;33252;48.122;11.538;2022-08-01T07:07:35;22.00;91.40
47520;DHT22;33252;48.122;11.538;2022-08-01T07:10:00;22.10;91.60
47520;DHT22;33252;48.122;11.538;2022-08-01T07:12:26;22.10;90.80
47520;DHT22;33252;48.122;11.538;2022-08-01T07:14:51;22.10;91.10
47520;DHT22;33252;48.122;11.538;2022-08-01T07:17:17;22.10;90.90
47520;DHT22;33252;48.122;11.538;2022-08-01T07:19:45;22.00;91.20
47520;DHT22;33252;48.122;11.538;2022-08-01T07:22:11;22.10;91.20
47520;DHT22;33252;48.122;11.538;2022-08-01T07:24:36;22.10;91.20
47520;DHT22;33252;48.122;11.538;2022-08-01T07:27:02;22.20;91.10
47520;DHT22;33252;48.122;11.538;2022-08-01T07:29:28;22.30;91.20
47520;DHT22;33252;48.122;11.538;2022-08-01T07:31:54;22.20;91.00
47520;DHT22;33252;48.122;11.538;2022-08-01T07:34:20;22.20;91.20
47520;DHT22;33252;48.122;11.538;2022-08-01T07:36:45;22.40;90.90
47520;DHT22;33252;48.122;11.538;2022-08-01T07:39:11;22.20;91.10
47520;DHT22;33252;48.122;11.538;2022-08-01T07:41:36;22.30;91.30
47520;DHT22;33252;48.122;11.538;2022-08-01T07:44:02;22.40;91.20
47520;DHT22;33252;48.122;11.538;2022-08-01T07:46:28;22.40;91.30
47520;DHT22;33252;48.122;11.538;2022-08-01T07:48:55;22.50;91.30
47520;DHT22;33252;48.122;11.538;2022-08-01T07:51:21;22.60;91.10
47520;DHT22;33252;48.122;11.538;2022-08-01T07:53:46;22.70;90.90
47520;DHT22;33252;48.122;11.538;2022-08-01T07:56:12;22.60;90.80
47520;DHT22;33252;48.122;11.538;2022-08-01T07:58:37;22.80;90.80
47520;DHT22;33252;48.122;11.538;2022-08-01T08:01:03;22.70;90.60
47520;DHT22;33252;48.122;11.538;2022-08-01T08:03:28;22.60;90.70
47520;DHT22;33252;48.122;11.538;2022-08-01T08:05:54;22.70;91.20
47520;DHT22;33252;48.122;11.538;2022-08-01T08:08:20;22.60;91.10
47520;DHT22;33252;48.122;11.538;2022-08-01T08:10:45;22.70;90.70
47520;DHT22;33252;48.122;11.538;2022-08-01T08:13:11;22.70;91.20
47520;DHT22;33252;48.122;11.538;2022-08-01T08:15:36;22.90;90.90
47520;DHT22;33252;48.122;11.538;2022-08-01T08:18:03;23.00;91.00
47520;DHT22;33252;48.122;11.538;2022-08-01T08:20:28;23.10;90.50
47520;DHT22;33252;48.122;11.538;2022-08-01T08:22:54;23.20;90.80
47520;DHT22;33252;48.122;11.538;2022-08-01T08:25:20;23.20;90.60
47520;DHT22;33252;48.122;11.538;2022-08-01T08:27:47;23.20;90.50
47520;DHT22;33252;48.122;11.538;2022-08-01T08:30:13;23.10;90.70
47520;DHT22;33252;48.122;11.538;2022-08-01T08:32:38;23.10;90.40
47520;DHT22;33252;48.122;11.538;2022-08-01T08:35:05;23.30;90.40
47520;DHT22;33252;48.122;11.538;2022-08-01T08:37:30;23.20;90.40
47520;DHT22;33252;48.122;11.538;2022-08-01T08:39:56;23.40;90.80
47520;DHT22;33252;48.122;11.538;2022-08-01T08:42:21;23.40;90.30
47520;DHT22;33252;48.122;11.538;2022-08-01T08:44:47;23.40;89.90
47520;DHT22;33252;48.122;11.538;2022-08-01T08:47:13;23.40;90.70
47520;DHT22;33252;48.122;11.538;2022-08-01T08:49:40;23.40;89.90
47520;DHT22;33252;48.122;11.538;2022-08-01T08:52:07;23.40;90.30
47520;DHT22;33252;48.122;11.538;2022-08-01T08:54:35;23.50;90.20
47520;DHT22;33252;48.122;11.538;2022-08-01T08:57:02;23.70;90.40
47520;DHT22;33252;48.122;11.538;2022-08-01T08:59:28;23.70;90.40
47520;DHT22;33252;48.122;11.538;2022-08-01T09:01:54;23.80;89.90
47520;DHT22;33252;48.122;11.538;2022-08-01T09:04:22;23.90;88.50
47520;DHT22;33252;48.122;11.538;2022-08-01T09:06:48;23.90;89.10
47520;DHT22;33252;48.122;11.538;2022-08-01T09:09:14;23.90;89.70
47520;DHT22;33252;48.122;11.538;2022-08-01T09:11:39;24.00;88.40
47520;DHT22;33252;48.122;11.538;2022-08-01T09:16:33;24.10;87.40
47520;DHT22;33252;48.122;11.538;2022-08-01T09:19:06;24.10;87.60
47520;DHT22;33252;48.122;11.538;2022-08-01T09:21:32;24.10;87.30
47520;DHT22;33252;48.122;11.538;2022-08-01T09:23:57;24.00;87.10
47520;DHT22;33252;48.122;11.538;2022-08-01T09:28:54;24.00;87.50
47520;DHT22;33252;48.122;11.538;2022-08-01T09:31:19;24.10;87.70
47520;DHT22;33252;48.122;11.538;2022-08-01T09:36:13;24.20;87.20
47520;DHT22;33252;48.122;11.538;2022-08-01T09:38:39;24.20;87.00
47520;DHT22;33252;48.122;11.538;2022-08-01T09:41:04;24.30;85.40
47520;DHT22;33252;48.122;11.538;2022-08-01T09:43:32;24.40;85.90
47520;DHT22;33252;48.122;11.538;2022-08-01T09:45:58;24.20;84.90
47520;DHT22;33252;48.122;11.538;2022-08-01T09:48:25;24.10;86.60
47520;DHT22;33252;48.122;11.538;2022-08-01T09:50:51;24.30;85.50
47520;DHT22;33252;48.122;11.538;2022-08-01T09:53:18;24.50;85.20
47520;DHT22;33252;48.122;11.538;2022-08-01T09:55:43;24.40;85.60
47520;DHT22;33252;48.122;11.538;2022-08-01T09:58:10;24.60;87.20
47520;DHT22;33252;48.122;11.538;2022-08-01T10:00:37;24.80;86.20
47520;DHT22;33252;48.122;11.538;2022-08-01T10:03:22;24.80;84.50
47520;DHT22;33252;48.122;11.538;2022-08-01T10:05:48;24.90;83.80
47520;DHT22;33252;48.122;11.538;2022-08-01T10:08:14;24.70;84.00
47520;DHT22;33252;48.122;11.538;2022-08-01T10:10:39;24.40;84.90
47520;DHT22;33252;48.122;11.538;2022-08-01T10:13:05;24.70;84.40
47520;DHT22;33252;48.122;11.538;2022-08-01T10:15:31;24.70;84.90
47520;DHT22;33252;48.122;11.538;2022-08-01T10:17:57;24.80;84.80
47520;DHT22;33252;48.122;11.538;2022-08-01T10:20:25;25.00;83.40
47520;DHT22;33252;48.122;11.538;2022-08-01T10:22:54;24.90;82.60
47520;DHT22;33252;48.122;11.538;2022-08-01T10:25:19;24.90;84.00
47520;DHT22;33252;48.122;11.538;2022-08-01T10:27:45;25.00;83.40
47520;DHT22;33252;48.122;11.538;2022-08-01T10:30:14;25.00;83.50
47520;DHT22;33252;48.122;11.538;2022-08-01T10:32:40;24.90;84.10
47520;DHT22;33252;48.122;11.538;2022-08-01T10:35:08;25.10;83.80
47520;DHT22;33252;48.122;11.538;2022-08-01T10:37:34;25.10;83.30
47520;DHT22;33252;48.122;11.538;2022-08-01T10:40:02;25.00;82.20
47520;DHT22;33252;48.122;11.538;2022-08-01T10:42:30;25.00;83.60
47520;DHT22;33252;48.122;11.538;2022-08-01T10:44:55;25.00;83.20
47520;DHT22;33252;48.122;11.538;2022-08-01T10:47:27;25.10;83.20
47520;DHT22;33252;48.122;11.538;2022-08-01T10:50:00;25.10;84.10
47520;DHT22;33252;48.122;11.538;2022-08-01T10:52:27;25.00;83.30
47520;DHT22;33252;48.122;11.538;2022-08-01T10:55:06;25.30;83.90
47520;DHT22;33252;48.122;11.538;2022-08-01T10:57:44;25.30;82.90
47520;DHT22;33252;48.122;11.538;2022-08-01T11:00:17;25.20;83.30
47520;DHT22;33252;48.122;11.538;2022-08-01T11:02:44;25.20;84.00
47520;DHT22;33252;48.122;11.538;2022-08-01T11:05:21;25.50;84.50
47520;DHT22;33252;48.122;11.538;2022-08-01T11:07:51;25.60;82.70
47520;DHT22;33252;48.122;11.538;2022-08-01T11:12:45;25.50;82.60
47520;DHT22;33252;48.122;11.538;2022-08-01T11:17:37;25.60;81.90
47520;DHT22;33252;48.122;11.538;2022-08-01T11:25:18;25.60;82.20
47520;DHT22;33252;48.122;11.538;2022-08-01T11:27:44;25.80;81.20
47520;DHT22;33252;48.122;11.538;2022-08-01T11:32:45;25.90;81.40
47520;DHT22;33252;48.122;11.538;2022-08-01T11:35:11;26.10;80.30
47520;DHT22;33252;48.122;11.538;2022-08-01T11:37:37;26.30;80.30
47520;DHT22;33252;48.122;11.538;2022-08-01T11:40:22;26.20;81.00
47520;DHT22;33252;48.122;11.538;2022-08-01T11:42:48;26.40;79.20
47520;DHT22;33252;48.122;11.538;2022-08-01T11:45:14;26.40;79.60
47520;DHT22;33252;48.122;11.538;2022-08-01T11:47:49;26.30;79.60
47520;DHT22;33252;48.122;11.538;2022-08-01T11:50:36;26.50;79.60
47520;DHT22;33252;48.122;11.538;2022-08-01T11:53:03;26.70;76.90
47520;DHT22;33252;48.122;11.538;2022-08-01T11:55:28;26.30;77.60
47520;DHT22;33252;48.122;11.538;2022-08-01T11:58:12;26.40;78.90
47520;DHT22;33252;48.122;11.538;2022-08-01T12:00:37;26.60;77.60
47520;DHT22;33252;48.122;11.538;2022-08-01T12:03:04;26.40;78.00
47520;DHT22;33252;48.122;11.538;2022-08-01T12:05:30;25.90;75.70
47520;DHT22;33252;48.122;11.538;2022-08-01T12:07:58;26.10;77.60
47520;DHT22;33252;48.122;11.538;2022-08-01T12:10:25;26.40;76.00
47520;DHT22;33252;48.122;11.538;2022-08-01T12:12:55;26.50;76.50
47520;DHT22;33252;48.122;11.538;2022-08-01T12:15:23;26.40;74.60
47520;DHT22;33252;48.122;11.538;2022-08-01T12:17:50;26.60;74.80
47520;DHT22;33252;48.122;11.538;2022-08-01T12:20:20;26.80;75.00
47520;DHT22;33252;48.122;11.538;2022-08-01T12:22:47;26.90;75.00
47520;DHT22;33252;48.122;11.538;2022-08-01T12:25:16;26.80;73.60
47520;DHT22;33252;48.122;11.538;2022-08-01T12:27:42;26.90;73.90
47520;DHT22;33252;48.122;11.538;2022-08-01T12:30:12;26.90;73.50
47520;DHT22;33252;48.122;11.538;2022-08-01T12:32:38;27.20;74.50
47520;DHT22;33252;48.122;11.538;2022-08-01T12:37:31;27.40;74.10
47520;DHT22;33252;48.122;11.538;2022-08-01T12:39:57;27.80;70.70
47520;DHT22;33252;48.122;11.538;2022-08-01T12:42:24;27.70;70.70
47520;DHT22;33252;48.122;11.538;2022-08-01T12:44:50;27.70;71.80
47520;DHT22;33252;48.122;11.538;2022-08-01T12:47:16;27.70;73.20
47520;DHT22;33252;48.122;11.538;2022-08-01T12:49:43;27.80;71.40
47520;DHT22;33252;48.122;11.538;2022-08-01T12:52:09;28.00;70.20
47520;DHT22;33252;48.122;11.538;2022-08-01T12:57:23;28.30;69.80
47520;DHT22;33252;48.122;11.538;2022-08-01T12:59:52;28.00;72.40
47520;DHT22;33252;48.122;11.538;2022-08-01T13:02:17;27.70;71.90
47520;DHT22;33252;48.122;11.538;2022-08-01T13:04:50;27.60;71.20
47520;DHT22;33252;48.122;11.538;2022-08-01T13:07:18;27.50;73.40
47520;DHT22;33252;48.122;11.538;2022-08-01T13:09:50;27.80;72.30
47520;DHT22;33252;48.122;11.538;2022-08-01T13:12:16;28.20;68.90
47520;DHT22;33252;48.122;11.538;2022-08-01T13:14:41;28.30;68.20
47520;DHT22;33252;48.122;11.538;2022-08-01T13:17:07;28.00;70.00
47520;DHT22;33252;48.122;11.538;2022-08-01T13:19:42;27.70;70.90
47520;DHT22;33252;48.122;11.538;2022-08-01T13:22:08;27.50;70.80
47520;DHT22;33252;48.122;11.538;2022-08-01T13:24:33;27.20;72.70
47520;DHT22;33252;48.122;11.538;2022-08-01T13:27:00;26.60;75.10
47520;DHT22;33252;48.122;11.538;2022-08-01T13:29:38;26.40;75.70
47520;DHT22;33252;48.122;11.538;2022-08-01T13:32:12;26.20;76.70
47520;DHT22;33252;48.122;11.538;2022-08-01T13:34:38;26.30;76.50
47520;DHT22;33252;48.122;11.538;2022-08-01T13:37:04;26.40;76.80
47520;DHT22;33252;48.122;11.538;2022-08-01T13:39:30;27.10;76.40
47520;DHT22;33252;48.122;11.538;2022-08-01T13:42:12;26.90;76.20
47520;DHT22;33252;48.122;11.538;2022-08-01T13:44:39;26.90;77.70
47520;DHT22;33252;48.122;11.538;2022-08-01T13:47:05;27.10;77.20
47520;DHT22;33252;48.122;11.538;2022-08-01T13:49:31;26.70;76.40
47520;DHT22;33252;48.122;11.538;2022-08-01T13:51:57;26.60;78.00
47520;DHT22;33252;48.122;11.538;2022-08-01T13:54:22;26.50;78.70
47520;DHT22;33252;48.122;11.538;2022-08-01T13:56:49;26.30;77.30
47520;DHT22;33252;48.122;11.538;2022-08-01T13:59:14;26.30;77.00
47520;DHT22;33252;48.122;11.538;2022-08-01T14:01:40;26.10;76.00
47520;DHT22;33252;48.122;11.538;2022-08-01T14:04:06;26.00;75.00
47520;DHT22;33252;48.122;11.538;2022-08-01T14:06:31;25.90;75.00
47520;DHT22;33252;48.122;11.538;2022-08-01T14:08:57;25.90;76.00
47520;DHT22;33252;48.122;11.538;2022-08-01T14:11:23;25.80;76.30
47520;DHT22;33252;48.122;11.538;2022-08-01T14:13:48;25.80;76.80
47520;DHT22;33252;48.122;11.538;2022-08-01T14:16:14;25.60;77.50
47520;DHT22;33252;48.122;11.538;2022-08-01T14:18:39;25.30;80.30
47520;DHT22;33252;48.122;11.538;2022-08-01T14:21:05;24.90;85.10
47520;DHT22;33252;48.122;11.538;2022-08-01T14:23:31;24.90;84.80
47520;DHT22;33252;48.122;11.538;2022-08-01T14:25:57;25.00;84.40
47520;DHT22;33252;48.122;11.538;2022-08-01T14:28:22;25.10;86.90
47520;DHT22;33252;48.122;11.538;2022-08-01T14:30:49;25.10;84.00
47520;DHT22;33252;48.122;11.538;2022-08-01T14:33:15;25.10;85.60
47520;DHT22;33252;48.122;11.538;2022-08-01T14:35:40;25.10;85.20
47520;DHT22;33252;48.122;11.538;2022-08-01T14:38:06;25.10;84.00
47520;DHT22;33252;48.122;11.538;2022-08-01T14:40:33;25.00;84.20
47520;DHT22;33252;48.122;11.538;2022-08-01T14:42:58;25.10;84.10
47520;DHT22;33252;48.122;11.538;2022-08-01T14:45:26;25.00;84.60
47520;DHT22;33252;48.122;11.538;2022-08-01T14:47:51;24.90;85.40
47520;DHT22;33252;48.122;11.538;2022-08-01T14:50:17;24.90;85.20
47520;DHT22;33252;48.122;11.538;2022-08-01T14:52:42;24.90;85.90
47520;DHT22;33252;48.122;11.538;2022-08-01T14:55:09;24.90;86.00
47520;DHT22;33252;48.122;11.538;2022-08-01T14:57:35;24.90;86.30
47520;DHT22;33252;48.122;11.538;2022-08-01T15:00:00;24.90;86.90
47520;DHT22;33252;48.122;11.538;2022-08-01T15:02:26;24.90;86.60
47520;DHT22;33252;48.122;11.538;2022-08-01T15:04:52;24.80;86.60
47520;DHT22;33252;48.122;11.538;2022-08-01T15:07:18;24.90;87.90
47520;DHT22;33252;48.122;11.538;2022-08-01T15:09:44;24.90;87.00
47520;DHT22;33252;48.122;11.538;2022-08-01T15:12:10;24.80;87.00
47520;DHT22;33252;48.122;11.538;2022-08-01T15:14:36;24.80;87.10
47520;DHT22;33252;48.122;11.538;2022-08-01T15:17:18;24.90;85.30
47520;DHT22;33252;48.122;11.538;2022-08-01T15:19:53;24.90;85.30
47520;DHT22;33252;48.122;11.538;2022-08-01T15:22:20;24.90;84.80
47520;DHT22;33252;48.122;11.538;2022-08-01T15:24:52;24.80;85.20
47520;DHT22;33252;48.122;11.538;2022-08-01T15:27:18;24.80;86.00
47520;DHT22;33252;48.122;11.538;2022-08-01T15:29:44;24.80;85.60
47520;DHT22;33252;48.122;11.538;2022-08-01T15:32:10;24.70;85.70
47520;DHT22;33252;48.122;11.538;2022-08-01T15:34:36;24.70;86.10
47520;DHT22;33252;48.122;11.538;2022-08-01T15:37:02;24.70;86.30
47520;DHT22;33252;48.122;11.538;2022-08-01T15:39:28;24.50;87.00
47520;DHT22;33252;48.122;11.538;2022-08-01T15:41:54;24.30;88.20
47520;DHT22;33252;48.122;11.538;2022-08-01T15:44:19;24.10;89.40
47520;DHT22;33252;48.122;11.538;2022-08-01T15:46:47;23.90;90.30
47520;DHT22;33252;48.122;11.538;2022-08-01T15:49:13;23.80;90.80
47520;DHT22;33252;48.122;11.538;2022-08-01T15:51:38;23.70;91.10
47520;DHT22;33252;48.122;11.538;2022-08-01T15:54:04;23.70;91.50
47520;DHT22;33252;48.122;11.538;2022-08-01T15:56:34;23.60;91.60
47520;DHT22;33252;48.122;11.538;2022-08-01T15:58:59;23.70;91.50